Time;durP1;ratioP1;P1;durP2;ratioP2;P2;SDS_P1;SDS_P2;PMS_P1;PMS_P2;Temp;Humidity;BMP_temperature;BMP_pressure;BME280_temperature;BME280_humidity;BME280_pressure;Samples;Min_cycle;Max_cycle;Signal;HPM_P1;HPM_P2
2021/10/04 00:02:02;;;;;;;18.20;7.72;;;14.30;88.70;;;;;;5015781;28;20474;-68
2021/10/04 00:04:29;;;;;;;10.43;7.28;;;14.00;88.10;;;;;;5015717;28;20026;-67
2021/10/04 00:06:56;;;;;;;14.00;8.32;;;13.90;88.40;;;;;;5015707;28;20501;-66
2021/10/04 00:09:23;;;;;;;15.77;7.57;;;13.90;88.90;;;;;;5015636;28;20076;-68
2021/10/04 00:11:49;;;;;;;12.80;7.90;;;13.80;90.00;;;;;;4997959;28;20117;-67
2021/10/04 00:14:15;;;;;;;15.93;8.80;;;13.70;90.20;;;;;;4997932;28;20033;-67
2021/10/04 00:16:41;;;;;;;17.60;9.45;;;13.50;90.40;;;;;;5015456;28;20033;-68
2021/10/04 00:19:07;;;;;;;16.83;8.93;;;13.40;90.50;;;;;;5015417;28;20026;-65
2021/10/04 00:21:33;;;;;;;14.55;8.98;;;13.50;91.10;;;;;;5015416;28;20056;-67
2021/10/04 00:23:59;;;;;;;17.70;10.27;;;13.30;91.10;;;;;;5015337;28;20528;-68
2021/10/04 00:26:25;;;;;;;17.73;9.18;;;13.30;91.20;;;;;;4997703;28;20022;-66
2021/10/04 00:28:51;;;;;;;23.55;9.95;;;13.30;91.40;;;;;;4997612;28;20026;-68
2021/10/04 00:31:17;;;;;;;28.00;9.93;;;13.40;91.00;;;;;;5015217;28;20784;-66
2021/10/04 00:33:42;;;;;;;17.15;9.75;;;13.40;91.10;;;;;;5014773;28;20069;-67
2021/10/04 00:36:08;;;;;;;18.30;9.82;;;13.40;91.00;;;;;;5014872;28;20033;-70
2021/10/04 00:38:34;;;;;;;15.98;9.75;;;13.40;91.10;;;;;;5015040;28;20034;-68
2021/10/04 00:41:00;;;;;;;26.10;10.32;;;13.40;91.00;;;;;;5015057;28;20054;-66
2021/10/04 00:43:26;;;;;;;15.70;9.88;;;13.40;91.10;;;;;;5015326;28;20115;-66
2021/10/04 00:45:52;;;;;;;16.67;9.23;;;13.30;91.10;;;;;;5014990;28;20073;-68
2021/10/04 00:48:18;;;;;;;18.88;10.52;;;13.30;91.20;;;;;;5014923;28;20073;-68
2021/10/04 00:50:45;;;;;;;16.05;9.48;;;13.30;91.20;;;;;;5014864;28;20050;-68
2021/10/04 00:53:11;;;;;;;20.42;9.77;;;13.30;91.30;;;;;;4997220;28;20442;-67
2021/10/04 00:55:40;;;;;;;29.63;9.43;;;13.20;91.20;;;;;;5014750;28;20462;-67
2021/10/04 00:58:06;;;;;;;17.40;9.80;;;13.20;91.20;;;;;;5014328;28;20038;-66
2021/10/04 01:00:32;;;;;;;24.80;10.27;;;13.20;91.30;;;;;;5014670;28;20026;-67
2021/10/04 01:02:58;;;;;;;23.38;11.43;;;13.20;91.30;;;;;;5014626;28;20022;-67
2021/10/04 01:05:25;;;;;;;24.58;11.15;;;13.20;91.50;;;;;;5014574;28;20057;-65
2021/10/04 01:07:51;;;;;;;17.52;11.02;;;13.10;91.70;;;;;;5014591;28;20033;-68
2021/10/04 01:10:17;;;;;;;24.35;11.07;;;13.00;92.00;;;;;;5014506;28;20022;-67
2021/10/04 01:12:47;;;;;;;23.27;11.43;;;13.00;92.00;;;;;;5014450;28;20092;-68
2021/10/04 01:15:14;;;;;;;16.05;10.20;;;12.90;92.20;;;;;;4996778;28;20030;-66
2021/10/04 01:17:41;;;;;;;24.67;10.90;;;12.80;92.40;;;;;;5014400;28;20042;-66
2021/10/04 01:20:27;;;;;;;16.58;10.23;;;12.80;92.50;;;;;;4996684;28;20116;-68
2021/10/04 01:22:55;;;;;;;17.88;11.07;;;12.60;92.80;;;;;;5013797;28;20042;-66
2021/10/04 01:25:22;;;;;;;16.90;9.73;;;12.60;93.10;;;;;;4996584;28;20672;-68
2021/10/04 01:27:49;;;;;;;15.23;9.95;;;12.50;93.30;;;;;;5014260;28;20087;-66
2021/10/04 01:30:18;;;;;;;17.25;11.48;;;12.40;93.30;;;;;;5014165;28;20034;-65
2021/10/04 01:32:44;;;;;;;20.65;10.18;;;12.50;93.10;;;;;;5014198;28;20038;-67
2021/10/04 01:35:11;;;;;;;15.15;10.43;;;12.60;93.10;;;;;;4996484;28;20368;-66
2021/10/04 01:37:37;;;;;;;14.65;9.07;;;12.60;92.90;;;;;;5013993;28;20470;-65
2021/10/04 01:40:06;;;;;;;17.70;11.15;;;12.60;93.20;;;;;;4996362;28;20032;-66
2021/10/04 01:42:32;;;;;;;21.10;10.27;;;12.60;92.90;;;;;;5014019;28;20759;-65
2021/10/04 01:44:58;;;;;;;23.50;10.05;;;12.60;93.20;;;;;;5013883;28;20025;-67
2021/10/04 01:47:24;;;;;;;20.35;10.98;;;12.50;93.00;;;;;;5013051;28;20040;-65
2021/10/04 01:49:50;;;;;;;21.30;10.85;;;12.50;93.30;;;;;;5013811;28;20025;-64
2021/10/04 01:52:16;;;;;;;17.42;10.63;;;12.40;93.30;;;;;;5013789;28;20022;-67
2021/10/04 01:54:42;;;;;;;22.70;11.30;;;12.40;93.50;;;;;;5014048;28;20034;-66
2021/10/04 01:57:09;;;;;;;15.63;10.05;;;12.30;94.00;;;;;;5013695;28;20084;-67
2021/10/04 01:59:36;;;;;;;27.73;11.20;;;12.20;94.30;;;;;;4996064;28;20363;-66
2021/10/04 02:02:02;;;;;;;20.50;11.45;;;12.10;94.60;;;;;;4996018;28;20030;-66
2021/10/04 02:04:28;;;;;;;20.10;10.85;;;12.10;95.00;;;;;;4995912;28;20097;-67
2021/10/04 02:06:54;;;;;;;18.65;10.57;;;12.00;95.20;;;;;;5013634;28;20042;-67
2021/10/04 02:09:20;;;;;;;22.80;12.55;;;12.00;95.50;;;;;;4995884;28;20356;-66
2021/10/04 02:11:46;;;;;;;23.98;12.07;;;12.00;95.90;;;;;;5013516;28;20033;-66
2021/10/04 02:14:14;;;;;;;19.45;12.60;;;12.10;95.70;;;;;;5013541;28;20112;-68
2021/10/04 02:16:40;;;;;;;23.10;13.18;;;12.10;95.60;;;;;;5013426;28;20034;-67
2021/10/04 02:19:06;;;;;;;22.20;12.43;;;12.20;95.40;;;;;;5013694;28;20105;-64
2021/10/04 02:21:32;;;;;;;23.27;12.50;;;12.20;95.80;;;;;;5013669;28;20418;-65
2021/10/04 02:24:00;;;;;;;20.23;10.90;;;12.20;95.60;;;;;;4995752;28;20030;-67
2021/10/04 02:26:26;;;;;;;25.02;12.50;;;12.10;95.70;;;;;;4995701;28;20030;-65
2021/10/04 02:28:52;;;;;;;24.50;13.13;;;12.20;95.70;;;;;;5013323;28;20037;-64
2021/10/04 02:31:18;;;;;;;22.52;12.90;;;12.20;95.70;;;;;;5013317;28;20382;-64
2021/10/04 02:33:46;;;;;;;22.00;12.43;;;12.20;95.70;;;;;;5010684;28;20127;-66
2021/10/04 02:36:12;;;;;;;20.75;11.50;;;12.20;95.90;;;;;;4995594;28;20037;-67
2021/10/04 02:38:38;;;;;;;22.73;11.82;;;12.20;95.70;;;;;;4995532;28;20030;-66
2021/10/04 02:41:04;;;;;;;22.20;11.70;;;12.20;95.80;;;;;;5013222;28;20034;-66
2021/10/04 02:43:30;;;;;;;21.80;11.38;;;12.20;95.40;;;;;;4995466;28;20040;-64
2021/10/04 02:45:55;;;;;;;21.98;12.30;;;12.20;95.50;;;;;;5012190;28;20105;-65
2021/10/04 02:48:22;;;;;;;23.95;11.82;;;12.20;95.60;;;;;;5013502;28;20370;-66
2021/10/04 02:50:48;;;;;;;21.88;11.38;;;12.10;95.50;;;;;;5012872;28;20026;-69
2021/10/04 02:53:14;;;;;;;19.92;12.00;;;12.10;95.80;;;;;;4995455;28;20053;-67
2021/10/04 02:55:40;;;;;;;22.70;12.50;;;12.00;95.80;;;;;;5013072;28;20030;-69
2021/10/04 02:58:06;;;;;;;22.15;11.40;;;12.00;95.90;;;;;;5013930;28;20497;-66
2021/10/04 03:00:35;;;;;;;24.40;11.77;;;12.00;96.00;;;;;;5016908;28;20064;-67
2021/10/04 03:03:02;;;;;;;20.85;11.35;;;12.00;96.10;;;;;;4999231;28;20029;-67
2021/10/04 03:05:29;;;;;;;21.98;12.85;;;11.90;96.20;;;;;;5016566;28;20040;-66
2021/10/04 03:07:55;;;;;;;20.50;11.80;;;11.90;96.70;;;;;;5016825;28;20414;-69
2021/10/04 03:10:21;;;;;;;18.38;11.63;;;11.90;96.90;;;;;;5016760;28;20022;-68
2021/10/04 03:12:47;;;;;;;23.95;12.07;;;11.80;97.10;;;;;;4998766;28;20026;-68
2021/10/04 03:15:15;;;;;;;19.60;11.75;;;11.80;97.40;;;;;;5016687;28;20021;-67
2021/10/04 03:17:40;;;;;;;20.65;10.90;;;11.80;97.20;;;;;;5016645;28;20045;-66
2021/10/04 03:20:07;;;;;;;17.55;10.60;;;11.70;97.60;;;;;;4998925;28;20026;-66
2021/10/04 03:22:33;;;;;;;23.88;12.60;;;11.70;97.50;;;;;;5016559;28;20117;-68
2021/10/04 03:24:59;;;;;;;24.05;11.63;;;11.80;98.00;;;;;;5016538;28;20100;-67
2021/10/04 03:27:25;;;;;;;22.42;11.65;;;11.50;97.70;;;;;;4998811;28;20092;-67
2021/10/04 03:29:51;;;;;;;16.77;10.90;;;11.70;98.20;;;;;;5016129;28;20042;-69
2021/10/04 03:32:18;;;;;;;17.63;10.93;;;11.70;98.10;;;;;;5016345;28;20018;-67
2021/10/04 03:34:44;;;;;;;18.80;11.23;;;11.60;98.30;;;;;;4998151;28;20107;-68
2021/10/04 03:37:10;;;;;;;19.90;10.90;;;11.70;98.20;;;;;;4998289;28;20064;-68
2021/10/04 03:39:36;;;;;;;20.77;11.60;;;11.60;98.30;;;;;;5016289;28;20038;-68
2021/10/04 03:42:02;;;;;;;18.52;10.95;;;11.70;99.90;;;;;;4998543;28;20026;-67
2021/10/04 03:44:28;;;;;;;26.50;13.57;;;11.70;99.90;;;;;;4998519;28;20026;-67
2021/10/04 03:46:56;;;;;;;27.58;16.98;;;11.70;99.90;;;;;;5016012;28;20029;-68
2021/10/04 03:49:22;;;;;;;25.15;15.55;;;11.60;99.60;;;;;;5016394;28;20474;-69
2021/10/04 03:51:48;;;;;;;23.27;14.13;;;11.60;99.50;;;;;;5016250;28;20075;-68
2021/10/04 03:54:14;;;;;;;20.10;13.20;;;11.50;99.70;;;;;;5015947;28;20038;-68
2021/10/04 03:56:40;;;;;;;27.40;13.13;;;11.50;99.70;;;;;;4998206;28;20026;-68
2021/10/04 03:59:05;;;;;;;26.67;14.10;;;11.60;99.90;;;;;;4998208;28;20060;-69
2021/10/04 04:01:31;;;;;;;22.05;12.85;;;11.60;99.90;;;;;;4998130;28;20033;-67
2021/10/04 04:03:57;;;;;;;26.17;13.48;;;11.50;99.90;;;;;;5015784;28;20030;-67
2021/10/04 04:06:23;;;;;;;28.55;13.43;;;11.50;99.90;;;;;;4998132;28;20387;-67
2021/10/04 04:08:49;;;;;;;20.95;13.43;;;11.50;99.90;;;;;;5015262;28;20038;-69
2021/10/04 04:11:15;;;;;;;24.35;12.90;;;11.50;99.90;;;;;;5014922;28;20030;-68
2021/10/04 04:13:41;;;;;;;20.27;12.38;;;11.40;99.90;;;;;;5015616;28;20030;-67
2021/10/04 04:16:07;;;;;;;28.05;12.65;;;11.40;99.90;;;;;;5015551;28;20022;-68
2021/10/04 04:18:33;;;;;;;21.20;12.88;;;11.40;99.90;;;;;;5015213;28;20382;-68
2021/10/04 04:20:59;;;;;;;23.05;12.45;;;11.40;99.90;;;;;;5015439;28;20389;-67
2021/10/04 04:23:25;;;;;;;23.70;12.30;;;11.30;99.90;;;;;;5015416;28;20078;-67
2021/10/04 04:25:51;;;;;;;23.92;12.45;;;11.40;99.90;;;;;;4997745;28;20022;-67
2021/10/04 04:28:17;;;;;;;24.20;11.98;;;11.40;99.90;;;;;;5015586;28;20030;-68
2021/10/04 04:30:43;;;;;;;25.30;13.48;;;11.40;99.90;;;;;;4997648;28;20394;-69
2021/10/04 04:33:08;;;;;;;24.42;15.10;;;11.40;99.90;;;;;;5014753;28;20045;-69
2021/10/04 04:35:34;;;;;;;29.73;15.65;;;11.40;99.90;;;;;;4997607;28;20062;-69
2021/10/04 04:38:00;;;;;;;34.35;18.95;;;11.40;99.90;;;;;;5015124;28;20041;-67
2021/10/04 04:40:26;;;;;;;31.67;17.63;;;11.40;99.90;;;;;;5015398;28;20030;-67
2021/10/04 04:42:52;;;;;;;27.80;15.25;;;11.40;99.90;;;;;;5015037;28;20033;-67
2021/10/04 04:45:19;;;;;;;30.55;17.10;;;11.40;99.90;;;;;;4997107;28;20375;-67
2021/10/04 04:47:47;;;;;;;33.50;16.58;;;11.30;99.90;;;;;;4997098;28;20030;-71
2021/10/04 04:50:14;;;;;;;40.92;18.58;;;11.30;99.90;;;;;;5014818;28;20148;-67
2021/10/04 04:52:40;;;;;;;28.25;15.73;;;11.30;99.90;;;;;;4997246;28;20030;-69
2021/10/04 04:57:45;;;;;;;30.98;15.70;;;11.50;99.90;;;;;;5050905;22;20054;-66
2021/10/04 05:00:13;;;;;;;29.92;16.67;;;11.30;99.90;;;;;;4975711;28;20034;-65
2021/10/04 05:02:44;;;;;;;26.38;13.98;;;11.30;99.90;;;;;;4975067;28;20022;-64
2021/10/04 05:05:12;;;;;;;25.33;14.85;;;11.30;99.90;;;;;;4974926;28;20026;-64
2021/10/04 05:07:38;;;;;;;27.83;14.90;;;11.30;99.90;;;;;;4975126;28;20499;-64
2021/10/04 05:10:06;;;;;;;24.05;13.50;;;11.30;99.90;;;;;;4974020;28;20035;-65
2021/10/04 05:12:32;;;;;;;26.02;14.63;;;11.30;99.90;;;;;;4969918;28;20023;-68
2021/10/04 05:14:58;;;;;;;24.20;13.63;;;11.30;99.90;;;;;;4955953;29;20027;-68
2021/10/04 05:17:24;;;;;;;25.00;13.93;;;11.20;99.90;;;;;;4938670;29;20130;-67
2021/10/04 05:19:50;;;;;;;23.35;14.02;;;11.20;99.90;;;;;;4938597;29;20174;-65
2021/10/04 05:22:16;;;;;;;21.20;13.90;;;11.30;99.90;;;;;;4955806;28;20031;-68
2021/10/04 05:24:42;;;;;;;21.02;12.77;;;11.30;99.90;;;;;;4956123;29;20037;-68
2021/10/04 05:27:08;;;;;;;19.85;12.82;;;11.40;99.90;;;;;;4955709;29;20126;-64
2021/10/04 05:29:34;;;;;;;25.88;14.38;;;11.40;99.90;;;;;;4955707;29;20493;-65
2021/10/04 05:31:59;;;;;;;35.40;13.93;;;11.60;99.90;;;;;;4955664;29;20034;-66
2021/10/04 05:34:25;;;;;;;23.30;13.63;;;11.60;99.90;;;;;;4955639;29;20379;-66
2021/10/04 05:36:53;;;;;;;27.55;14.35;;;11.50;99.90;;;;;;4955400;29;20110;-66
2021/10/04 05:39:18;;;;;;;26.63;16.52;;;11.60;99.90;;;;;;4955524;29;20042;-64
2021/10/04 05:41:44;;;;;;;26.52;13.80;;;11.70;99.90;;;;;;4955480;29;20388;-64
2021/10/04 05:44:10;;;;;;;23.85;14.35;;;11.70;99.90;;;;;;4938305;29;20059;-63
2021/10/04 05:46:36;;;;;;;26.15;13.40;;;11.80;99.90;;;;;;4955696;29;20404;-65
2021/10/04 05:49:03;;;;;;;19.40;11.65;;;11.80;99.90;;;;;;4955099;29;20038;-62
2021/10/04 05:51:29;;;;;;;28.20;14.20;;;11.90;99.90;;;;;;4955406;29;20031;-64
2021/10/04 05:53:55;;;;;;;22.02;12.02;;;11.90;99.90;;;;;;4955139;29;20030;-64
2021/10/04 05:56:21;;;;;;;17.85;11.25;;;11.90;99.90;;;;;;4956741;28;20494;-63
2021/10/04 05:58:47;;;;;;;20.13;10.73;;;12.00;99.90;;;;;;4955030;29;20047;-64
2021/10/04 06:01:13;;;;;;;20.83;12.25;;;12.10;99.90;;;;;;4954182;29;20086;-64
2021/10/04 06:03:38;;;;;;;19.83;11.73;;;12.10;99.90;;;;;;4954832;29;20443;-66
2021/10/04 06:06:04;;;;;;;20.58;11.85;;;12.10;99.90;;;;;;4954627;29;20066;-63
2021/10/04 06:08:31;;;;;;;20.73;11.15;;;12.20;99.90;;;;;;4955430;29;20055;-63
2021/10/04 06:10:57;;;;;;;21.70;11.35;;;12.30;99.90;;;;;;4955104;29;20032;-64
2021/10/04 06:13:23;;;;;;;23.80;12.70;;;12.30;99.90;;;;;;4955382;29;20484;-64
2021/10/04 06:15:49;;;;;;;27.00;12.10;;;12.40;99.90;;;;;;4954692;29;20068;-65
2021/10/04 06:18:15;;;;;;;21.38;11.38;;;12.50;99.90;;;;;;4954577;29;20085;-64
2021/10/04 06:20:41;;;;;;;22.73;11.25;;;12.50;99.90;;;;;;4937726;29;20395;-66
2021/10/04 06:23:08;;;;;;;21.52;11.32;;;12.60;99.90;;;;;;4954923;29;20054;-66
2021/10/04 06:25:34;;;;;;;18.90;11.35;;;12.70;99.90;;;;;;4955004;29;20041;-65
2021/10/04 06:28:00;;;;;;;24.42;11.55;;;12.80;99.90;;;;;;4955284;29;20039;-63
2021/10/04 06:30:27;;;;;;;22.77;11.85;;;12.80;99.90;;;;;;4954948;29;20019;-65
2021/10/04 06:32:53;;;;;;;19.00;12.55;;;12.90;99.90;;;;;;4954271;29;20027;-67
2021/10/04 06:35:20;;;;;;;20.17;12.00;;;13.00;99.90;;;;;;4954806;29;20032;-67
2021/10/04 06:37:46;;;;;;;30.33;13.40;;;13.00;99.90;;;;;;4954638;29;20046;-64
2021/10/04 06:40:14;;;;;;;20.38;12.65;;;13.10;99.90;;;;;;4937441;29;20031;-67
2021/10/04 06:42:40;;;;;;;31.60;14.48;;;13.20;99.90;;;;;;4954801;29;20027;-66
2021/10/04 06:45:07;;;;;;;30.27;14.82;;;13.20;99.90;;;;;;4954850;29;20033;-65
2021/10/04 06:47:36;;;;;;;26.77;15.63;;;13.30;99.90;;;;;;4954842;29;20035;-66
2021/10/04 06:50:04;;;;;;;26.45;15.80;;;13.40;99.20;;;;;;4954814;29;20078;-65
2021/10/04 06:52:30;;;;;;;31.08;17.17;;;13.50;99.10;;;;;;4954849;29;20457;-66
2021/10/04 06:54:56;;;;;;;27.88;16.02;;;13.50;98.20;;;;;;4954787;29;20110;-68
2021/10/04 06:57:22;;;;;;;27.35;16.38;;;13.60;98.60;;;;;;4942897;29;20086;-68
2021/10/04 06:59:48;;;;;;;40.85;17.23;;;13.70;98.80;;;;;;4954724;28;20311;-66
2021/10/04 07:02:14;;;;;;;31.30;16.77;;;13.80;99.00;;;;;;4954792;29;20441;-66
2021/10/04 07:04:40;;;;;;;27.05;16.02;;;13.90;98.30;;;;;;4953271;29;20031;-64
2021/10/04 07:07:06;;;;;;;30.25;16.15;;;14.00;98.00;;;;;;4954874;29;20039;-65
2021/10/04 07:09:32;;;;;;;31.08;16.75;;;14.10;97.40;;;;;;4954650;29;20059;-67
2021/10/04 07:11:59;;;;;;;22.65;14.77;;;14.20;97.50;;;;;;4953323;29;20035;-67
2021/10/04 07:14:26;;;;;;;30.55;16.85;;;14.30;97.30;;;;;;4954653;28;20023;-65
2021/10/04 07:16:52;;;;;;;30.17;16.17;;;14.30;97.20;;;;;;4953262;29;20133;-68
2021/10/04 07:19:18;;;;;;;28.65;15.45;;;14.40;97.20;;;;;;4954480;28;20356;-68
2021/10/04 07:21:45;;;;;;;31.02;17.55;;;14.60;97.00;;;;;;4954447;28;20058;-66
2021/10/04 07:24:11;;;;;;;37.80;17.25;;;14.70;96.10;;;;;;4954238;28;20463;-67
2021/10/04 07:26:37;;;;;;;28.70;14.82;;;14.80;96.30;;;;;;4954449;28;20552;-67
2021/10/04 07:29:05;;;;;;;28.88;14.65;;;14.70;99.90;;;;;;4954406;28;20058;-69
2021/10/04 07:31:31;;;;;;;28.02;14.30;;;15.20;96.50;;;;;;4954454;29;20535;-65
2021/10/04 07:33:57;;;;;;;32.88;15.32;;;15.10;96.30;;;;;;4953139;29;20118;-65
2021/10/04 07:36:29;;;;;;;29.40;14.43;;;15.30;96.00;;;;;;4954550;28;20110;-64
2021/10/04 07:38:54;;;;;;;25.38;13.57;;;15.40;95.80;;;;;;4954366;28;20036;-64
2021/10/04 07:41:20;;;;;;;26.67;13.25;;;15.50;95.40;;;;;;4952942;29;20035;-65
2021/10/04 07:43:46;;;;;;;28.13;14.45;;;15.70;94.90;;;;;;4954369;28;20106;-65
2021/10/04 07:46:12;;;;;;;25.35;14.70;;;15.90;93.90;;;;;;4955562;29;20147;-66
2021/10/04 07:48:38;;;;;;;21.83;12.18;;;16.00;94.20;;;;;;4957683;28;20472;-67
2021/10/04 07:51:14;;;;;;;22.67;12.35;;;16.10;93.80;;;;;;4957501;28;20034;-65
2021/10/04 07:53:41;;;;;;;24.35;12.50;;;16.20;93.70;;;;;;4957596;28;20027;-67
2021/10/04 07:56:07;;;;;;;18.85;11.57;;;16.30;94.20;;;;;;4956149;29;20129;-70
2021/10/04 07:58:33;;;;;;;22.60;11.80;;;16.50;93.00;;;;;;4955694;29;20051;-65
2021/10/04 08:00:59;;;;;;;22.40;11.45;;;16.60;93.50;;;;;;4957515;28;20042;-69
2021/10/04 08:03:25;;;;;;;23.77;11.02;;;16.70;92.90;;;;;;4957749;29;20027;-66
2021/10/04 08:05:51;;;;;;;19.95;9.90;;;16.90;93.30;;;;;;4955936;29;20027;-66
2021/10/04 08:08:17;;;;;;;15.73;10.20;;;17.10;99.90;;;;;;4957087;28;20027;-66
2021/10/04 08:10:43;;;;;;;19.90;10.60;;;17.20;92.60;;;;;;4957299;28;20035;-67
2021/10/04 08:13:10;;;;;;;15.65;9.13;;;17.30;91.90;;;;;;4957286;28;20031;-66
2021/10/04 08:15:38;;;;;;;21.67;9.18;;;17.50;91.10;;;;;;4957152;28;20031;-69
2021/10/04 08:18:04;;;;;;;13.98;9.48;;;17.70;91.10;;;;;;4956967;28;20039;-67
2021/10/04 08:20:30;;;;;;;14.93;9.10;;;17.90;91.10;;;;;;4955655;28;20066;-66
2021/10/04 08:22:56;;;;;;;16.35;8.77;;;18.00;90.70;;;;;;4957074;28;20023;-68
2021/10/04 08:25:22;;;;;;;14.50;9.07;;;18.20;90.00;;;;;;4956538;28;20391;-68
2021/10/04 08:27:49;;;;;;;14.63;8.18;;;18.40;89.80;;;;;;4955288;29;20130;-67
2021/10/04 08:30:15;;;;;;;12.52;8.40;;;18.60;89.40;;;;;;4957228;28;20069;-67
2021/10/04 08:32:41;;;;;;;22.00;9.35;;;18.90;86.70;;;;;;4956621;28;20039;-66
2021/10/04 08:35:08;;;;;;;20.30;9.23;;;19.00;87.90;;;;;;4955433;29;20079;-67
2021/10/04 08:37:34;;;;;;;13.35;8.63;;;19.20;87.30;;;;;;4955383;29;20468;-69
2021/10/04 08:40:03;;;;;;;16.67;8.52;;;19.40;87.90;;;;;;4956533;28;20110;-69
2021/10/04 08:42:31;;;;;;;13.90;8.27;;;19.60;86.40;;;;;;4956181;28;20407;-67
2021/10/04 08:44:57;;;;;;;19.80;8.40;;;19.80;86.30;;;;;;4955196;29;20058;-68
2021/10/04 08:47:24;;;;;;;19.77;12.60;;;20.00;88.80;;;;;;4956462;28;20065;-67
2021/10/04 08:49:50;;;;;;;14.00;8.80;;;20.30;89.40;;;;;;4956631;28;20027;-68
2021/10/04 08:52:17;;;;;;;13.43;8.35;;;20.20;84.20;;;;;;4955012;29;20036;-67
2021/10/04 08:54:44;;;;;;;13.15;8.25;;;20.30;83.60;;;;;;4954979;29;20032;-66
2021/10/04 08:57:10;;;;;;;16.83;9.10;;;20.60;82.60;;;;;;4955525;28;20047;-69
2021/10/04 08:59:37;;;;;;;17.58;9.30;;;20.70;82.20;;;;;;4956522;29;20483;-69
2021/10/04 09:02:24;;;;;;;16.33;7.85;;;20.90;82.30;;;;;;4956210;29;20496;-70
2021/10/04 09:05:12;;;;;;;15.23;8.40;;;21.00;82.30;;;;;;4956318;29;20058;-66
2021/10/04 09:07:48;;;;;;;21.33;7.82;;;21.30;82.80;;;;;;4956373;29;20039;-65
2021/10/04 09:10:23;;;;;;;19.90;8.32;;;21.50;79.50;;;;;;4956123;29;20035;-66
2021/10/04 09:12:53;;;;;;;21.83;8.00;;;21.60;80.20;;;;;;4938905;29;20559;-69
2021/10/04 09:15:24;;;;;;;17.73;7.93;;;21.80;79.40;;;;;;4938850;29;20488;-70
2021/10/04 09:17:51;;;;;;;14.80;8.02;;;21.90;77.90;;;;;;4955959;29;20118;-66
2021/10/04 09:20:18;;;;;;;12.57;7.47;;;22.10;79.20;;;;;;4955798;29;20039;-70
2021/10/04 09:22:44;;;;;;;13.70;7.22;;;22.20;78.20;;;;;;4962580;28;20382;-68
2021/10/04 09:25:11;;;;;;;14.63;7.18;;;22.40;77.10;;;;;;4972065;28;20463;-67
2021/10/04 09:27:39;;;;;;;11.60;7.00;;;;;;;;;;4974837;28;20030;-68
2021/10/04 09:30:12;;;;;;;13.13;7.50;;;22.60;77.60;;;;;;4974966;28;20035;-67
2021/10/04 09:32:43;;;;;;;12.20;8.30;;;22.80;73.90;;;;;;4974250;28;20027;-67
2021/10/04 09:35:23;;;;;;;14.27;7.65;;;23.00;75.50;;;;;;4973051;28;20051;-71
2021/10/04 09:38:16;;;;;;;10.85;7.13;;;23.10;75.40;;;;;;4974651;28;20245;-66
2021/10/04 09:40:44;;;;;;;16.13;7.93;;;23.30;74.80;;;;;;4974913;28;20486;-68
2021/10/04 09:43:30;;;;;;;17.45;7.55;;;;;;;;;;4974955;28;20029;-68
2021/10/04 09:46:00;;;;;;;19.48;8.45;;;23.50;74.60;;;;;;4974723;28;20039;-68
2021/10/04 09:48:27;;;;;;;13.40;7.72;;;23.90;74.00;;;;;;4975089;28;20035;-68
2021/10/04 09:50:53;;;;;;;17.63;8.45;;;24.10;72.80;;;;;;4973435;28;20027;-69
2021/10/04 09:53:19;;;;;;;12.05;7.50;;;24.20;73.50;;;;;;4974753;28;20038;-67
2021/10/04 09:55:46;;;;;;;11.75;7.75;;;24.30;71.40;;;;;;4974562;28;20019;-68
2021/10/04 09:58:18;;;;;;;14.65;9.10;;;24.50;70.80;;;;;;4973542;28;20050;-71
2021/10/04 10:00:46;;;;;;;14.68;8.25;;;24.50;71.00;;;;;;4974289;28;20432;-72
2021/10/04 10:03:14;;;;;;;15.75;8.05;;;24.80;70.30;;;;;;4974588;28;20534;-69
2021/10/04 10:05:43;;;;;;;10.95;7.85;;;25.00;69.60;;;;;;4974458;28;20035;-70
2021/10/04 10:08:11;;;;;;;13.82;7.57;;;25.20;68.70;;;;;;4973427;28;20503;-69
2021/10/04 10:10:38;;;;;;;18.20;8.07;;;;;;;;;;4953840;28;20027;-68
2021/10/04 10:13:05;;;;;;;14.75;7.85;;;;;;;;;;4962983;28;20159;-71
2021/10/04 10:15:32;;;;;;;9.93;7.25;;;;;;;;;;4937346;29;20155;-72
2021/10/04 10:18:23;;;;;;;21.08;8.27;;;26.20;68.80;;;;;;4954902;29;20488;-71
2021/10/04 10:21:01;;;;;;;14.98;8.73;;;27.90;63.70;;;;;;4954784;29;20039;-70
2021/10/04 10:23:52;;;;;;;15.63;8.88;;;28.30;63.70;;;;;;4971187;28;20023;-70
2021/10/04 10:26:39;;;;;;;14.57;8.75;;;;;;;;;;4974463;28;20453;-71
2021/10/04 10:29:16;;;;;;;17.23;8.20;;;30.20;57.30;;;;;;4973788;28;20031;-74
2021/10/04 10:31:55;;;;;;;17.52;8.57;;;30.20;57.20;;;;;;4956794;28;20490;-71
2021/10/04 10:34:29;;;;;;;12.60;8.30;;;31.10;56.20;;;;;;4974293;28;20030;-72
2021/10/04 10:37:43;;;;;;;17.27;8.05;;;31.10;57.10;;;;;;4973817;28;20073;-71
2021/10/04 10:40:14;;;;;;;14.45;7.40;;;;;;;;;;4974075;28;20130;-70
2021/10/04 10:42:41;;;;;;;10.50;7.63;;;;;;;;;;4956560;28;20446;-70
2021/10/04 10:45:09;;;;;;;13.60;7.68;;;;;;;;;;4973988;28;20106;-71
2021/10/04 10:50:05;;;;;;;10.48;8.05;;;;;;;;;;4973825;28;20031;-70
2021/10/04 10:52:33;;;;;;;11.75;7.78;;;;;;;;;;4973820;28;20371;-70
2021/10/04 10:55:00;;;;;;;15.07;7.57;;;31.70;54.50;;;;;;4973764;28;20039;-71
2021/10/04 10:57:45;;;;;;;11.73;7.03;;;;;;;;;;4982764;28;20074;-69
2021/10/04 11:00:17;;;;;;;13.98;8.23;;;;;;;;;;4993080;28;20034;-69
2021/10/04 11:03:14;;;;;;;12.38;7.03;;;35.50;49.60;;;;;;4993065;28;20023;-70
2021/10/04 11:05:42;;;;;;;11.23;7.68;;;36.70;45.20;;;;;;4991426;28;20046;-69
2021/10/04 11:08:31;;;;;;;9.02;6.80;;;;;;;;;;4993382;28;20041;-70
2021/10/04 11:10:57;;;;;;;10.88;7.13;;;36.70;46.60;;;;;;4979896;28;20498;-69
2021/10/04 11:14:00;;;;;;;12.20;6.35;;;38.20;45.60;;;;;;4992989;28;20102;-69
2021/10/04 11:16:25;;;;;;;11.25;6.47;;;38.60;44.70;;;;;;4977909;28;20379;-69
2021/10/04 11:18:54;;;;;;;9.90;7.03;;;38.70;44.30;;;;;;4991774;28;20038;-69
2021/10/04 11:21:23;;;;;;;8.20;7.07;;;39.00;44.30;;;;;;4996635;28;20035;-69
2021/10/04 11:23:54;;;;;;;8.15;4.97;;;38.90;43.40;;;;;;4996375;28;20038;-70
2021/10/04 11:26:22;;;;;;;10.52;6.47;;;38.90;41.90;;;;;;4996775;28;20049;-70
2021/10/04 11:28:57;;;;;;;10.88;5.45;;;39.00;41.80;;;;;;4996275;28;20096;-70
2021/10/04 11:31:24;;;;;;;10.48;6.82;;;;;;;;;;4996362;28;20037;-70
2021/10/04 11:33:53;;;;;;;10.07;5.88;;;39.30;42.00;;;;;;4996328;28;20029;-69
2021/10/04 11:36:20;;;;;;;9.57;6.45;;;;;;;;;;4996472;28;20026;-69
2021/10/04 11:38:58;;;;;;;9.55;5.43;;;40.10;41.60;;;;;;4996117;28;20030;-70
2021/10/04 11:41:30;;;;;;;9.00;5.85;;;40.20;42.20;;;;;;4996344;28;20029;-69
2021/10/04 11:44:04;;;;;;;10.27;6.00;;;39.80;40.80;;;;;;4996577;28;20352;-69
2021/10/04 11:46:34;;;;;;;8.63;5.82;;;39.90;41.20;;;;;;4978775;28;20113;-70
2021/10/04 11:49:09;;;;;;;9.98;6.30;;;39.90;40.90;;;;;;4978558;28;20030;-70
2021/10/04 11:51:44;;;;;;;9.40;5.90;;;40.50;41.80;;;;;;4996455;28;20026;-69
2021/10/04 11:54:11;;;;;;;11.65;5.20;;;;;;;;;;4978663;28;20501;-70
2021/10/04 11:56:41;;;;;;;9.23;5.90;;;;;;;;;;4994806;28;20062;-70
2021/10/04 11:59:07;;;;;;;7.63;5.50;;;41.10;39.90;;;;;;4976517;28;20046;-69
2021/10/04 12:01:36;;;;;;;7.93;5.30;;;41.30;40.40;;;;;;4976108;28;20086;-71
2021/10/04 12:04:12;;;;;;;7.18;5.30;;;41.40;40.70;;;;;;4976441;28;20062;-70
2021/10/04 12:06:41;;;;;;;6.47;5.57;;;41.90;39.90;;;;;;4976464;28;20030;-71
2021/10/04 12:09:13;;;;;;;8.27;5.32;;;41.90;40.10;;;;;;4976293;28;20530;-69
2021/10/04 12:11:52;;;;;;;8.88;5.93;;;42.10;38.90;;;;;;4976363;28;20511;-70
2021/10/04 12:14:19;;;;;;;10.77;5.97;;;41.90;40.10;;;;;;4975809;28;20023;-69
2021/10/04 12:16:46;;;;;;;6.25;5.38;;;42.40;41.90;;;;;;4975756;28;20037;-70
2021/10/04 12:19:12;;;;;;;6.95;4.53;;;42.60;38.80;;;;;;4976194;28;20062;-70
2021/10/04 12:21:52;;;;;;;6.13;5.53;;;41.80;37.80;;;;;;4976239;28;20027;-68
2021/10/04 12:24:37;;;;;;;6.50;5.77;;;42.20;75.60;;;;;;4958720;28;20027;-69
2021/10/04 12:27:12;;;;;;;8.32;5.18;;;42.20;38.80;;;;;;4975945;28;20018;-70
2021/10/04 12:29:49;;;;;;;5.90;5.20;;;42.70;39.50;;;;;;4975899;28;20027;-71
2021/10/04 12:32:37;;;;;;;7.18;4.70;;;42.60;39.10;;;;;;4975379;28;20093;-69
2021/10/04 12:35:24;;;;;;;6.75;5.38;;;43.10;38.80;;;;;;4958286;28;20038;-70
2021/10/04 12:37:54;;;;;;;7.78;5.57;;;;;;;;;;4975576;28;20065;-70
2021/10/04 12:40:29;;;;;;;6.65;4.53;;;;;;;;;;4958694;28;20371;-71
2021/10/04 12:43:07;;;;;;;5.63;4.78;;;;;;;;;;4975578;28;20019;-71
2021/10/04 12:45:34;;;;;;;4.75;4.35;;;43.10;39.00;;;;;;4975460;28;20033;-71
2021/10/04 12:48:02;;;;;;;7.15;4.35;;;;;;;;;;4975566;28;20039;-70
2021/10/04 12:50:35;;;;;;;6.78;4.63;;;43.20;37.40;;;;;;4975448;28;20027;-70